Oliva, Spain
Current Conditions -  °F | °C
As of 5:00 AM on Wednesday 22 Oct 2014 (Local Time) from LEVC Reporting Station
Clear Clear  
Wind Chill: 72°   Ceiling: Unl
Heat Index: 72°   Visibility: 6mi
Dew Point: 50°   Wind: 3mph
Humidity: 46%   Direction: 310°NW
Pressure: 30.15"   Gusts: NA
Location:  38.92°N, 0.12°W
Report Text: LEVC 220300Z 31003KT 280V350 CAVOK 22/10 Q1021 NOSIG
Loading
Personal Weather Stations






























Interactive Weather Map
Tropical Storm Tracking
New forecast layout! Learn more

10-Day Weather Forecast

Advertisements
Track Severe Weather on mobile